Time;durP1;ratioP1;P1;durP2;ratioP2;P2;SDS_P1;SDS_P2;PMS_P1;PMS_P2;Temp;Humidity;BMP_temperature;BMP_pressure;BME280_temperature;BME280_humidity;BME280_pressure;Samples;Min_cycle;Max_cycle;Signal;HPM_P1;HPM_P2
2022/09/25 00:02:58;;;;;;;;;;;;;;;14.02;89.97;100319.28;4974081;28;19921;-72
2022/09/25 00:06:10;;;;;;;;;;;;;;;13.95;90.16;100318.88;4973842;28;19937;-72
2022/09/25 00:09:17;;;;;;;;;;;;;;;14.03;90.02;100320.97;4962167;28;19920;-72
2022/09/25 00:12:20;;;;;;;;;;;;;;;14.01;89.69;100322.00;4973825;28;19993;-72
2022/09/25 00:15:23;;;;;;;;;;;;;;;13.98;89.86;100323.09;4973836;28;20324;-72
2022/09/25 00:21:51;;;;;;;;;;;;;;;14.04;89.73;100312.16;4961298;28;19941;-72
2022/09/25 00:24:54;;;;;;;;;;;;;;;14.02;89.94;100314.03;4973758;28;19921;-72
2022/09/25 00:27:58;;;;;;;;;;;;;;;14.00;90.01;100321.19;4973788;28;20333;-71
2022/09/25 00:31:03;;;;;;;;;;;;;;;13.95;90.39;100324.13;4973847;28;20368;-72
2022/09/25 00:34:07;;;;;;;;;;;;;;;14.02;89.66;100324.56;4973318;28;20013;-72
2022/09/25 00:37:11;;;;;;;;;;;;;;;14.01;89.23;100316.75;4972760;28;20356;-72
2022/09/25 00:40:14;;;;;;;;;;;;;;;13.95;90.10;100318.88;4973648;28;19925;-72
2022/09/25 00:43:37;;;;;;;;;;;;;;;13.97;89.97;100326.66;4973786;28;19921;-72
2022/09/25 00:46:41;;;;;;;;;;;;;;;14.02;89.72;100316.66;4975699;28;20001;-72
2022/09/25 00:49:46;;;;;;;;;;;;;;;13.91;90.11;100316.56;4977458;28;19921;-71
2022/09/25 00:52:53;;;;;;;;;;;;;;;13.93;90.41;100319.94;4976965;28;19977;-72
2022/09/25 00:55:58;;;;;;;;;;;;;;;13.94;90.68;100316.34;4976832;28;19925;-72
2022/09/25 00:59:01;;;;;;;;;;;;;;;13.95;90.43;100316.25;4976884;28;20332;-72
2022/09/25 01:02:07;;;;;;;;;;;;;;;13.99;90.11;100314.25;4976806;28;19991;-72
2022/09/25 01:05:15;;;;;;;;;;;;;;;13.99;90.03;100301.09;4976937;28;19961;-72
2022/09/25 01:08:22;;;;;;;;;;;;;;;13.96;90.27;100306.56;4977129;28;20381;-72
2022/09/25 01:11:25;;;;;;;;;;;;;;;13.93;90.60;100298.91;4976892;28;19937;-72
2022/09/25 01:14:32;;;;;;;;;;;;;;;13.96;90.43;100306.56;4977189;28;19969;-72
2022/09/25 01:17:46;;;;;;;;;;;;;;;14.02;90.12;100306.16;4976093;28;19924;-72
2022/09/25 01:21:04;;;;;;;;;;;;;;;14.04;90.04;100301.63;4976402;28;19925;-72
2022/09/25 01:24:26;;;;;;;;;;;;;;;13.96;90.36;100303.94;4976759;28;20028;-72
2022/09/25 01:27:36;;;;;;;;;;;;;;;13.98;90.48;100312.56;4976951;28;19968;-72
2022/09/25 01:30:42;;;;;;;;;;;;;;;13.98;90.22;100302.06;4976131;28;19936;-72
2022/09/25 01:33:49;;;;;;;;;;;;;;;13.93;90.34;100293.66;4976138;28;20098;-72
2022/09/25 01:36:57;;;;;;;;;;;;;;;13.87;90.91;100299.31;4975461;28;19972;-72
2022/09/25 01:40:03;;;;;;;;;;;;;;;13.78;91.74;100289.44;4976196;28;19988;-72
2022/09/25 01:43:13;;;;;;;;;;;;;;;13.80;92.00;100298.09;4976366;28;20305;-72
2022/09/25 01:46:20;;;;;;;;;;;;;;;13.84;91.57;100295.13;4976569;28;19940;-72
2022/09/25 01:49:23;;;;;;;;;;;;;;;13.94;90.76;100296.19;4976166;28;19921;-72
2022/09/25 01:52:31;;;;;;;;;;;;;;;13.89;90.82;100285.13;4976352;28;19960;-72
2022/09/25 01:55:39;;;;;;;;;;;;;;;13.87;91.05;100283.56;4975013;28;19994;-72
2022/09/25 01:58:49;;;;;;;;;;;;;;;13.85;91.17;100285.47;4974822;28;19921;-72
2022/09/25 02:01:54;;;;;;;;;;;;;;;13.78;91.00;100282.41;4975931;28;19964;-72
2022/09/25 02:05:03;;;;;;;;;;;;;;;13.81;91.07;100291.88;4975861;28;20380;-72
2022/09/25 02:08:09;;;;;;;;;;;;;;;13.70;91.84;100284.75;4975942;28;19976;-72
2022/09/25 02:11:13;;;;;;;;;;;;;;;13.66;92.50;100281.47;4975818;28;20064;-72
2022/09/25 02:14:19;;;;;;;;;;;;;;;13.72;92.10;100291.56;4618109;28;10000463;-72
2022/09/25 02:20:59;;;;;;;;;;;;;;;13.84;90.98;100299.53;4952951;29;20429;-72
2022/09/25 02:24:05;;;;;;;;;;;;;;;13.91;90.48;100274.50;4953634;28;19944;-72
2022/09/25 02:27:10;;;;;;;;;;;;;;;13.91;90.52;100285.03;4952869;28;20348;-72
2022/09/25 02:30:16;;;;;;;;;;;;;;;13.92;90.53;100281.47;4952689;28;19921;-72
2022/09/25 02:33:21;;;;;;;;;;;;;;;13.90;90.24;100285.97;4953811;28;19969;-72
2022/09/25 02:36:27;;;;;;;;;;;;;;;13.86;90.45;100292.41;4941954;28;19925;-72
2022/09/25 02:39:30;;;;;;;;;;;;;;;13.77;90.54;100288.63;4952737;28;19965;-72
2022/09/25 02:42:49;;;;;;;;;;;;;;;13.80;90.39;100288.41;4952939;28;19989;-72
2022/09/25 02:45:53;;;;;;;;;;;;;;;13.84;90.32;100295.13;4952511;28;19972;-72
2022/09/25 02:49:01;;;;;;;;;;;;;;;13.89;90.18;100293.03;4951647;28;19921;-72
2022/09/25 02:52:11;;;;;;;;;;;;;;;13.67;91.31;100298.09;4952285;28;19940;-72
2022/09/25 02:55:24;;;;;;;;;;;;;;;13.78;91.15;100299.97;4952078;28;19933;-71
2022/09/25 02:58:27;;;;;;;;;;;;;;;13.80;90.89;100301.53;4951722;28;20074;-72
2022/09/25 03:01:34;;;;;;;;;;;;;;;13.79;90.95;100302.50;4951336;28;19930;-72
2022/09/25 03:04:39;;;;;;;;;;;;;;;13.88;90.76;100307.13;4939959;28;20303;-72
2022/09/25 03:11:11;;;;;;;;;;;;;;;13.87;90.67;100309.84;4952304;28;19969;-72
2022/09/25 03:14:15;;;;;;;;;;;;;;;13.89;90.58;100307.97;4951695;28;19973;-72
2022/09/25 03:17:22;;;;;;;;;;;;;;;13.84;90.95;100310.88;4951872;29;19973;-72
2022/09/25 03:20:25;;;;;;;;;;;;;;;13.84;91.05;100304.78;4952165;29;19930;-72
2022/09/25 03:23:30;;;;;;;;;;;;;;;13.85;90.67;100302.06;4951248;29;19925;-72
2022/09/25 03:26:34;;;;;;;;;;;;;;;13.92;90.42;100291.97;4951289;29;19921;-72
2022/09/25 03:29:37;;;;;;;;;;;;;;;13.83;90.87;100305.75;4951776;29;19926;-72
2022/09/25 03:32:41;;;;;;;;;;;;;;;13.80;91.38;100298.09;4951972;29;19925;-72
2022/09/25 03:35:44;;;;;;;;;;;;;;;13.78;91.35;100294.72;4949636;29;19921;-72
2022/09/25 03:38:50;;;;;;;;;;;;;;;13.81;91.21;100295.34;4950160;29;20343;-72
2022/09/25 03:41:53;;;;;;;;;;;;;;;13.82;91.50;100296.19;4949783;29;19977;-72
2022/09/25 03:44:57;;;;;;;;;;;;;;;13.86;91.21;100297.66;4949863;29;19992;-72
2022/09/25 03:48:00;;;;;;;;;;;;;;;13.86;91.16;100297.66;4950663;29;20070;-72
2022/09/25 03:51:06;;;;;;;;;;;;;;;13.83;91.31;100298.69;4951268;29;19972;-72
2022/09/25 03:54:11;;;;;;;;;;;;;;;13.71;92.06;100295.13;4951538;28;19933;-72
2022/09/25 03:57:16;;;;;;;;;;;;;;;13.75;92.07;100292.28;4951081;28;19968;-72
2022/09/25 04:00:20;;;;;;;;;;;;;;;13.79;91.73;100293.78;4951285;29;19928;-72
2022/09/25 04:03:27;;;;;;;;;;;;;;;13.88;91.10;100299.25;4951172;29;19989;-72
2022/09/25 04:06:31;;;;;;;;;;;;;;;13.79;91.33;100291.16;4951570;29;19962;-72
2022/09/25 04:09:34;;;;;;;;;;;;;;;13.73;91.67;100293.25;4939663;29;19954;-72
2022/09/25 04:12:38;;;;;;;;;;;;;;;13.80;91.48;100290.19;4951253;29;20417;-72
2022/09/25 04:15:42;;;;;;;;;;;;;;;13.72;91.69;100291.56;4932292;29;19970;-72
2022/09/25 04:18:46;;;;;;;;;;;;;;;13.75;91.55;100289.66;4931123;29;20000;-72
2022/09/25 04:21:49;;;;;;;;;;;;;;;13.66;91.73;100286.75;4934765;29;19926;-72
2022/09/25 04:24:53;;;;;;;;;;;;;;;13.72;91.71;100285.47;4924129;29;20452;-72
2022/09/25 04:27:57;;;;;;;;;;;;;;;13.73;91.36;100284.53;4935749;29;19941;-72
2022/09/25 04:31:01;;;;;;;;;;;;;;;13.70;91.24;100285.56;4936096;29;19925;-72
2022/09/25 04:34:04;;;;;;;;;;;;;;;13.71;91.39;100292.50;4935870;29;19925;-72
2022/09/25 04:37:09;;;;;;;;;;;;;;;13.75;91.42;100290.50;4597910;28;9999726;-72
2022/09/25 04:40:13;;;;;;;;;;;;;;;13.69;91.35;100291.78;4954340;29;20490;-72
2022/09/25 04:43:17;;;;;;;;;;;;;;;13.70;91.55;100290.00;4954928;29;19965;-72
2022/09/25 04:46:21;;;;;;;;;;;;;;;13.72;91.34;100290.75;4957187;29;19969;-72
2022/09/25 04:49:24;;;;;;;;;;;;;;;13.59;91.91;100290.75;4958083;29;19921;-72
2022/09/25 04:52:30;;;;;;;;;;;;;;;13.51;92.38;100298.28;4958357;29;19920;-72
2022/09/25 04:55:36;;;;;;;;;;;;;;;13.52;92.28;100293.88;4952053;28;19925;-72
2022/09/25 04:58:42;;;;;;;;;;;;;;;13.56;92.22;100298.84;4953284;28;19922;-72
2022/09/25 05:01:46;;;;;;;;;;;;;;;13.62;91.47;100300.19;4952276;28;19942;-72
2022/09/25 05:04:50;;;;;;;;;;;;;;;13.69;91.08;100307.56;4955001;29;19920;-72
2022/09/25 05:07:54;;;;;;;;;;;;;;;13.70;91.07;100303.97;4956317;29;19922;-72
2022/09/25 05:10:58;;;;;;;;;;;;;;;13.65;91.44;100311.31;4961457;28;19929;-72
2022/09/25 05:14:01;;;;;;;;;;;;;;;13.61;91.68;100307.22;4957377;28;19925;-72
2022/09/25 05:17:09;;;;;;;;;;;;;;;13.65;91.41;100305.22;4957613;29;20270;-72
2022/09/25 05:20:12;;;;;;;;;;;;;;;13.69;91.23;100310.19;4954925;29;19925;-72
2022/09/25 05:23:16;;;;;;;;;;;;;;;13.66;91.15;100309.56;4955311;29;19925;-72
2022/09/25 05:26:21;;;;;;;;;;;;;;;13.67;91.28;100303.34;4955064;29;20006;-72
2022/09/25 05:29:24;;;;;;;;;;;;;;;13.56;91.78;100306.72;4956217;29;20281;-72
2022/09/25 05:32:29;;;;;;;;;;;;;;;13.58;91.95;100309.22;4955449;28;19969;-72
2022/09/25 05:35:33;;;;;;;;;;;;;;;13.65;91.43;100300.81;4956758;29;19969;-72
2022/09/25 05:38:37;;;;;;;;;;;;;;;13.70;91.25;100309.22;4958162;28;20015;-72
2022/09/25 05:41:43;;;;;;;;;;;;;;;13.68;91.33;100311.09;4966635;28;20266;-72
2022/09/25 05:44:47;;;;;;;;;;;;;;;13.53;92.08;100314.81;4938619;29;19922;-72
2022/09/25 05:48:01;;;;;;;;;;;;;;;13.55;91.98;100305.00;4938706;29;20024;-73
2022/09/25 05:51:04;;;;;;;;;;;;;;;13.58;92.32;100309.22;4938931;29;19921;-73
2022/09/25 05:54:08;;;;;;;;;;;;;;;13.65;91.73;100315.72;4937962;29;20013;-73
2022/09/25 05:57:11;;;;;;;;;;;;;;;13.59;92.20;100322.28;4937016;29;19937;-73
2022/09/25 06:00:15;;;;;;;;;;;;;;;13.59;92.11;100322.28;4936710;29;19952;-73
2022/09/25 06:03:19;;;;;;;;;;;;;;;13.13;95.00;100319.22;4936501;29;20397;-73
2022/09/25 06:06:22;;;;;;;;;;;;;;;13.24;94.97;100328.09;4938079;29;20373;-73
2022/09/25 06:09:26;;;;;;;;;;;;;;;13.50;93.25;100328.16;4938199;29;20274;-73
2022/09/25 06:12:30;;;;;;;;;;;;;;;13.58;91.82;100328.44;4952653;28;19921;-72
2022/09/25 06:15:38;;;;;;;;;;;;;;;13.71;91.15;100325.81;4975886;28;19921;-72
2022/09/25 06:18:43;;;;;;;;;;;;;;;13.76;90.89;100333.41;4975820;28;19941;-73
2022/09/25 06:21:46;;;;;;;;;;;;;;;13.76;91.26;100334.25;4976322;28;19988;-72
2022/09/25 06:24:49;;;;;;;;;;;;;;;13.79;91.32;100331.41;4976641;28;19921;-73
2022/09/25 06:27:54;;;;;;;;;;;;;;;13.82;91.09;100333.00;4963960;28;20002;-73
2022/09/25 06:30:59;;;;;;;;;;;;;;;13.79;91.47;100323.53;4975936;28;20001;-72
2022/09/25 06:34:03;;;;;;;;;;;;;;;13.86;91.35;100331.81;4975325;28;19937;-73
2022/09/25 06:37:06;;;;;;;;;;;;;;;13.82;91.27;100338.25;4972028;28;19920;-72
2022/09/25 06:40:10;;;;;;;;;;;;;;;13.88;90.89;100340.41;4973592;28;19992;-73
2022/09/25 06:43:15;;;;;;;;;;;;;;;13.93;90.77;100338.34;4972145;28;19921;-72
2022/09/25 06:46:18;;;;;;;;;;;;;;;13.95;91.11;100341.72;4972901;28;20053;-72
2022/09/25 06:49:22;;;;;;;;;;;;;;;13.90;90.76;100335.91;4973103;28;20317;-73
2022/09/25 06:52:25;;;;;;;;;;;;;;;13.70;92.63;100337.28;4975486;28;19920;-73
2022/09/25 06:55:33;;;;;;;;;;;;;;;13.68;92.69;100337.38;4965743;28;20425;-73
2022/09/25 06:58:38;;;;;;;;;;;;;;;13.62;92.85;100332.53;4955854;29;20489;-73
2022/09/25 07:01:42;;;;;;;;;;;;;;;13.54;94.09;100334.03;4955482;29;19965;-73
2022/09/25 07:04:46;;;;;;;;;;;;;;;13.89;92.20;100326.34;4955063;29;19921;-72
2022/09/25 07:07:49;;;;;;;;;;;;;;;14.05;90.29;100329.59;4955845;29;19941;-72
2022/09/25 07:10:53;;;;;;;;;;;;;;;14.15;88.98;100322.75;4955336;29;19969;-73
2022/09/25 07:13:57;;;;;;;;;;;;;;;14.29;87.90;100328.81;4960322;28;20040;-73
2022/09/25 07:17:01;;;;;;;;;;;;;;;14.36;87.00;100330.06;4962176;28;19947;-73
2022/09/25 07:20:07;;;;;;;;;;;;;;;14.37;86.68;100329.13;4949932;28;19929;-72
2022/09/25 07:23:10;;;;;;;;;;;;;;;14.37;86.97;100327.31;4956428;28;20000;-73
2022/09/25 07:26:15;;;;;;;;;;;;;;;14.33;87.85;100317.16;4937599;28;20009;-73
2022/09/25 07:29:19;;;;;;;;;;;;;;;14.39;88.59;100329.84;4928325;29;20297;-73
2022/09/25 07:32:22;;;;;;;;;;;;;;;14.38;89.20;100326.38;4951494;28;19921;-73
2022/09/25 07:35:26;;;;;;;;;;;;;;;14.48;89.68;100325.72;4951904;28;19945;-73
2022/09/25 07:38:29;;;;;;;;;;;;;;;14.45;89.85;100332.03;4951505;28;19941;-73
2022/09/25 07:41:33;;;;;;;;;;;;;;;14.39;90.57;100325.44;4950069;28;19925;-73
2022/09/25 07:44:38;;;;;;;;;;;;;;;14.40;91.03;100328.91;4949463;28;19984;-73
2022/09/25 07:47:42;;;;;;;;;;;;;;;14.52;90.18;100335.13;4949598;28;19921;-73
2022/09/25 07:50:47;;;;;;;;;;;;;;;14.47;89.21;100330.13;4951043;29;19922;-73
2022/09/25 07:53:51;;;;;;;;;;;;;;;14.52;89.37;100332.50;4954186;28;19980;-73
2022/09/25 07:56:56;;;;;;;;;;;;;;;14.48;89.13;100330.97;4950981;28;19945;-73
2022/09/25 08:00:00;;;;;;;;;;;;;;;14.42;90.04;100334.88;4950371;28;20077;-73
2022/09/25 08:03:04;;;;;;;;;;;;;;;14.47;89.97;100335.41;4949988;28;19977;-73
2022/09/25 08:06:10;;;;;;;;;;;;;;;14.43;89.80;100333.94;4938266;29;19920;-73
2022/09/25 08:09:14;;;;;;;;;;;;;;;14.43;91.03;100333.94;4950258;28;19925;-73
2022/09/25 08:12:17;;;;;;;;;;;;;;;14.46;90.69;100333.72;4950735;28;20019;-73
2022/09/25 08:15:21;;;;;;;;;;;;;;;14.58;89.54;100340.78;4956361;28;20393;-73
2022/09/25 08:18:24;;;;;;;;;;;;;;;14.59;89.06;100349.50;4931114;29;19923;-73
2022/09/25 08:21:28;;;;;;;;;;;;;;;14.65;89.39;100343.81;4930959;29;19985;-73
2022/09/25 08:24:33;;;;;;;;;;;;;;;14.68;89.00;100343.59;4930529;29;19926;-73
2022/09/25 08:27:39;;;;;;;;;;;;;;;14.62;89.65;100349.28;4931268;29;19994;-72
2022/09/25 08:30:43;;;;;;;;;;;;;;;14.50;89.34;100348.34;4964102;28;19921;-73
2022/09/25 08:33:47;;;;;;;;;;;;;;;14.47;89.68;100351.19;4959604;28;19920;-73
2022/09/25 08:36:50;;;;;;;;;;;;;;;14.45;89.64;100353.06;4970038;28;20009;-73
2022/09/25 08:39:53;;;;;;;;;;;;;;;14.32;89.72;100354.91;4968726;28;19982;-73
2022/09/25 08:42:58;;;;;;;;;;;;;;;14.23;90.48;100358.16;4968566;28;19961;-73
2022/09/25 08:49:28;;;;;;;;;;;;;;;14.13;90.10;100352.72;4949737;28;20128;-73
2022/09/25 08:52:33;;;;;;;;;;;;;;;14.07;89.82;100356.63;4950278;28;19925;-73
2022/09/25 08:59:27;;;;;;;;;;;;;;;14.14;92.16;100352.63;4917792;28;19922;-73
2022/09/25 09:02:37;;;;;;;;;;;;;;;14.27;93.48;100357.03;4959116;28;19973;-73
2022/09/25 09:05:45;;;;;;;;;;;;;;;14.42;93.06;100350.66;4957052;28;19933;-73
2022/09/25 09:13:46;;;;;;;;;;;;;;;14.39;92.21;100354.38;4957787;28;20338;-73
2022/09/25 09:17:02;;;;;;;;;;;;;;;14.29;91.67;100358.56;4963447;28;19964;-73
2022/09/25 09:20:16;;;;;;;;;;;;;;;14.27;90.65;100364.91;4963776;28;20008;-73
2022/09/25 09:23:22;;;;;;;;;;;;;;;13.89;88.96;100365.78;4961630;28;20425;-73
2022/09/25 09:26:45;;;;;;;;;;;;;;;13.72;89.08;100364.31;4959988;28;19925;-73
2022/09/25 09:30:06;;;;;;;;;;;;;;;13.71;88.61;100366.06;4947513;28;19942;-73
2022/09/25 09:33:29;;;;;;;;;;;;;;;13.76;87.48;100364.94;4960227;28;19921;-73
2022/09/25 09:36:55;;;;;;;;;;;;;;;13.70;88.00;100364.41;4961275;28;19921;-73
2022/09/25 09:40:31;;;;;;;;;;;;;;;13.69;87.74;100367.97;4960913;28;19913;-73
2022/09/25 09:44:00;;;;;;;;;;;;;;;13.91;87.83;100371.75;4949443;28;19925;-73
2022/09/25 09:47:12;;;;;;;;;;;;;;;13.75;86.61;100368.50;4961411;28;20401;-73
2022/09/25 09:50:16;;;;;;;;;;;;;;;13.92;86.97;100373.47;4960690;28;20281;-73
2022/09/25 09:53:36;;;;;;;;;;;;;;;13.99;87.41;100371.25;4960019;28;20030;-73
2022/09/25 09:56:41;;;;;;;;;;;;;;;13.91;87.39;100379.63;4947478;28;19970;-73
2022/09/25 09:59:49;;;;;;;;;;;;;;;14.08;87.27;100381.13;4915184;29;20002;-73
2022/09/25 10:03:00;;;;;;;;;;;;;;;14.10;87.07;100380.09;4914308;29;19962;-73
2022/09/25 10:06:19;;;;;;;;;;;;;;;14.12;87.43;100382.59;4917114;29;20330;-72
2022/09/25 10:09:26;;;;;;;;;;;;;;;14.27;86.61;100385.97;4917841;29;19922;-72
2022/09/25 10:12:32;;;;;;;;;;;;;;;14.35;86.68;100391.50;4918888;29;19922;-72
2022/09/25 10:15:40;;;;;;;;;;;;;;;14.35;86.18;100381.81;4918522;29;20010;-72
2022/09/25 10:18:51;;;;;;;;;;;;;;;14.32;87.15;100383.81;4946015;28;19922;-72
2022/09/25 10:22:01;;;;;;;;;;;;;;;14.28;88.69;100385.00;4956599;29;19973;-72
2022/09/25 10:25:05;;;;;;;;;;;;;;;13.96;91.86;100385.44;4956771;29;19921;-73
2022/09/25 10:28:24;;;;;;;;;;;;;;;14.15;88.82;100382.38;4943968;29;19968;-72
2022/09/25 10:31:32;;;;;;;;;;;;;;;14.08;88.16;100384.59;4955437;29;19922;-72
2022/09/25 10:34:37;;;;;;;;;;;;;;;14.23;87.97;100387.09;4956036;29;20286;-73
2022/09/25 10:37:40;;;;;;;;;;;;;;;14.30;87.26;100396.25;4955858;29;19962;-73
2022/09/25 10:40:57;;;;;;;;;;;;;;;14.28;87.99;100387.63;4956178;29;19925;-73
2022/09/25 10:44:02;;;;;;;;;;;;;;;14.39;86.50;100385.94;4956106;29;19969;-73
2022/09/25 10:50:41;;;;;;;;;;;;;;;14.49;85.89;100372.97;4955850;29;20329;-73
2022/09/25 10:53:45;;;;;;;;;;;;;;;14.32;87.93;100379.41;4945467;28;19926;-73
2022/09/25 10:56:49;;;;;;;;;;;;;;;14.42;88.02;100380.47;4936421;29;19922;-73
2022/09/25 10:59:53;;;;;;;;;;;;;;;14.55;86.50;100372.56;4936374;29;19921;-73
2022/09/25 11:02:59;;;;;;;;;;;;;;;14.68;86.05;100379.56;4936882;29;20377;-73
2022/09/25 11:06:07;;;;;;;;;;;;;;;14.71;85.50;100384.59;4936153;29;20495;-73
2022/09/25 11:09:13;;;;;;;;;;;;;;;14.74;84.22;100380.00;4946856;29;19941;-73
2022/09/25 11:12:22;;;;;;;;;;;;;;;14.69;84.83;100373.38;4945823;28;20041;-73
2022/09/25 11:15:26;;;;;;;;;;;;;;;14.65;84.98;100375.38;4962539;28;19921;-73
2022/09/25 11:18:36;;;;;;;;;;;;;;;14.59;85.23;100376.66;4963429;28;19921;-73
2022/09/25 11:21:44;;;;;;;;;;;;;;;14.62;84.91;100375.59;4964086;28;20064;-73
2022/09/25 11:24:50;;;;;;;;;;;;;;;14.15;86.38;100385.84;4959792;28;19925;-73
2022/09/25 11:27:54;;;;;;;;;;;;;;;14.08;87.11;100389.03;4962115;28;19921;-73
2022/09/25 11:31:01;;;;;;;;;;;;;;;14.31;87.29;100387.41;4962567;28;20313;-73
2022/09/25 11:34:23;;;;;;;;;;;;;;;14.25;86.13;100387.84;4957819;28;20280;-73
2022/09/25 11:37:35;;;;;;;;;;;;;;;14.07;86.06;100392.56;4953773;28;19921;-73
2022/09/25 11:44:34;;;;;;;;;;;;;;;13.87;85.72;100384.25;4957095;28;20008;-73
2022/09/25 11:47:53;;;;;;;;;;;;;;;14.09;86.61;100383.63;4963698;28;20393;-73
2022/09/25 11:51:34;;;;;;;;;;;;;;;14.15;86.48;100388.47;4963045;28;20430;-73
2022/09/25 11:54:42;;;;;;;;;;;;;;;14.25;85.70;100377.31;4938811;28;20337;-73
2022/09/25 11:58:08;;;;;;;;;;;;;;;14.33;85.56;100377.63;4964945;28;19921;-73
2022/09/25 12:01:38;;;;;;;;;;;;;;;14.31;86.13;100377.72;4960207;28;19929;-73
2022/09/25 12:04:44;;;;;;;;;;;;;;;14.29;84.30;100381.41;4957101;28;19990;-73
2022/09/25 12:08:00;;;;;;;;;;;;;;;14.34;85.06;100376.69;4960969;28;19925;-73
2022/09/25 12:11:44;;;;;;;;;;;;;;;14.41;86.12;100376.13;4960041;28;19965;-73
2022/09/25 12:15:07;;;;;;;;;;;;;;;14.40;85.69;100373.63;4905574;28;20348;-73
2022/09/25 12:18:17;;;;;;;;;;;;;;;14.43;84.78;100373.41;4962101;28;19920;-73
2022/09/25 12:21:32;;;;;;;;;;;;;;;14.52;84.70;100372.78;4963274;28;20013;-73
2022/09/25 12:24:48;;;;;;;;;;;;;;;14.46;86.85;100374.97;4962702;28;19921;-73
2022/09/25 12:27:52;;;;;;;;;;;;;;;14.42;85.13;100363.81;4954829;28;19969;-73
2022/09/25 12:31:03;;;;;;;;;;;;;;;14.54;85.92;100378.75;4954437;29;19942;-73
2022/09/25 12:34:20;;;;;;;;;;;;;;;14.52;85.36;100369.31;4959266;28;19971;-73
2022/09/25 12:37:42;;;;;;;;;;;;;;;14.54;85.77;100365.59;4961058;28;19961;-73
2022/09/25 12:41:28;;;;;;;;;;;;;;;14.59;85.76;100366.13;4964114;28;19965;-73
2022/09/25 12:44:46;;;;;;;;;;;;;;;14.44;86.12;100372.44;4969075;28;19972;-73
2022/09/25 12:47:51;;;;;;;;;;;;;;;14.38;87.03;100372.88;4967684;28;20014;-73
2022/09/25 12:51:05;;;;;;;;;;;;;;;14.26;88.14;100379.00;4973109;28;19921;-73
2022/09/25 12:54:18;;;;;;;;;;;;;;;14.21;87.91;100375.84;4973786;28;19925;-73
2022/09/25 12:57:21;;;;;;;;;;;;;;;14.38;86.71;100362.34;4964235;28;19976;-73
2022/09/25 13:00:33;;;;;;;;;;;;;;;14.49;85.02;100367.72;4967863;28;20669;-73
2022/09/25 13:03:37;;;;;;;;;;;;;;;14.43;85.05;100362.88;4966846;28;19921;-73
2022/09/25 13:06:55;;;;;;;;;;;;;;;14.51;85.67;100363.19;4963120;28;20321;-73
2022/09/25 13:10:06;;;;;;;;;;;;;;;14.23;84.90;100363.44;4967364;28;19920;-73
2022/09/25 13:13:18;;;;;;;;;;;;;;;14.23;85.48;100373.94;4969080;28;19994;-73
2022/09/25 13:16:23;;;;;;;;;;;;;;;14.40;85.77;100358.66;4963552;28;20013;-73
2022/09/25 13:19:34;;;;;;;;;;;;;;;14.55;85.03;100364.69;4965479;28;19964;-73
2022/09/25 13:22:40;;;;;;;;;;;;;;;14.62;82.75;100360.66;4967469;28;19972;-73
2022/09/25 13:25:58;;;;;;;;;;;;;;;14.72;81.46;100350.28;4965672;28;19936;-73
2022/09/25 13:29:14;;;;;;;;;;;;;;;14.70;83.83;100356.63;4966674;28;19960;-73
2022/09/25 13:32:21;;;;;;;;;;;;;;;14.76;83.76;100361.44;4976633;28;20026;-73
2022/09/25 13:35:46;;;;;;;;;;;;;;;14.76;82.67;100357.00;4976253;28;19921;-73
2022/09/25 13:43:39;;;;;;;;;;;;;;;14.47;85.31;100351.19;4976787;28;19924;-73
2022/09/25 13:47:12;;;;;;;;;;;;;;;14.52;85.33;100349.09;4976860;28;20019;-73
2022/09/25 13:50:23;;;;;;;;;;;;;;;14.65;85.13;100343.81;4976683;28;19921;-74
2022/09/25 13:53:33;;;;;;;;;;;;;;;14.79;81.22;100346.25;4976189;28;19921;-73
2022/09/25 13:57:02;;;;;;;;;;;;;;;14.67;75.16;100335.78;4964490;28;19925;-73
2022/09/25 14:00:14;;;;;;;;;;;;;;;14.88;77.65;100336.88;4975870;28;20280;-72
2022/09/25 14:03:34;;;;;;;;;;;;;;;14.89;76.49;100323.56;4976270;28;19969;-73
2022/09/25 14:06:52;;;;;;;;;;;;;;;15.04;76.55;100333.94;4976378;28;19921;-73
2022/09/25 14:10:00;;;;;;;;;;;;;;;15.10;74.13;100318.53;4976208;28;19921;-73
2022/09/25 14:13:05;;;;;;;;;;;;;;;15.05;73.80;100314.56;4963942;28;19921;-73
2022/09/25 14:16:34;;;;;;;;;;;;;;;15.03;73.76;100306.78;4975742;28;20400;-73
2022/09/25 14:19:43;;;;;;;;;;;;;;;15.23;76.07;100312.34;4976046;28;19920;-73
2022/09/25 14:22:52;;;;;;;;;;;;;;;15.46;74.18;100306.16;4975853;28;19945;-74
2022/09/25 14:25:57;;;;;;;;;;;;;;;15.51;73.92;100300.56;4975735;28;19969;-73
2022/09/25 14:29:26;;;;;;;;;;;;;;;15.58;73.88;100302.59;4975294;28;20412;-72
2022/09/25 14:32:45;;;;;;;;;;;;;;;15.17;71.63;100294.38;4975631;28;19968;-73
2022/09/25 14:36:00;;;;;;;;;;;;;;;14.80;71.69;100300.56;4944263;28;19924;-73
2022/09/25 14:39:24;;;;;;;;;;;;;;;14.65;72.30;100302.53;4933229;29;20433;-73
2022/09/25 14:42:40;;;;;;;;;;;;;;;14.60;73.11;100299.38;4942583;28;19995;-73
2022/09/25 14:46:19;;;;;;;;;;;;;;;14.55;71.54;100304.16;4950538;28;19920;-73
2022/09/25 14:49:36;;;;;;;;;;;;;;;14.77;72.91;100299.94;4951451;29;19924;-73
2022/09/25 14:52:41;;;;;;;;;;;;;;;14.95;76.41;100303.03;4951572;29;19996;-73
2022/09/25 14:55:51;;;;;;;;;;;;;;;14.99;78.74;100297.41;4969202;28;20230;-73
2022/09/25 14:59:02;;;;;;;;;;;;;;;14.95;80.43;100297.75;4970466;28;20404;-73
2022/09/25 15:02:32;;;;;;;;;;;;;;;14.89;79.11;100299.03;4970971;28;19925;-73
2022/09/25 15:05:44;;;;;;;;;;;;;;;14.88;81.38;100297.38;4969742;28;20329;-72
2022/09/25 15:08:48;;;;;;;;;;;;;;;14.98;81.04;100298.38;4969781;28;19995;-72
2022/09/25 15:11:54;;;;;;;;;;;;;;;15.00;81.18;100295.63;4949007;28;20285;-72
2022/09/25 15:14:58;;;;;;;;;;;;;;;14.95;82.51;100295.97;4952065;28;19957;-73
2022/09/25 15:18:06;;;;;;;;;;;;;;;14.79;83.86;100298.06;4614604;28;10000100;-72
2022/09/25 15:21:26;;;;;;;;;;;;;;;14.63;83.56;100299.16;4971489;28;20400;-73
2022/09/25 15:24:33;;;;;;;;;;;;;;;14.59;84.16;100307.41;4961837;28;19969;-72
2022/09/25 15:27:41;;;;;;;;;;;;;;;14.58;84.38;100295.19;4948811;28;20381;-73
2022/09/25 15:30:45;;;;;;;;;;;;;;;14.57;84.74;100302.25;4958854;28;19949;-73
2022/09/25 15:34:04;;;;;;;;;;;;;;;14.51;85.91;100300.03;4954429;28;19921;-73
2022/09/25 15:37:28;;;;;;;;;;;;;;;14.48;85.53;100296.78;4950659;28;20410;-73
2022/09/25 15:40:31;;;;;;;;;;;;;;;14.47;85.92;100292.47;4952699;28;19991;-73
2022/09/25 15:43:35;;;;;;;;;;;;;;;14.47;85.05;100285.41;4950855;28;19965;-73
2022/09/25 15:46:43;;;;;;;;;;;;;;;14.52;86.46;100293.84;4956574;28;19921;-73
2022/09/25 15:49:48;;;;;;;;;;;;;;;14.62;86.94;100292.22;4970487;28;19937;-73
2022/09/25 15:52:56;;;;;;;;;;;;;;;14.65;87.30;100286.75;4967439;28;19924;-73
2022/09/25 15:56:20;;;;;;;;;;;;;;;14.82;86.76;100276.78;4948147;28;19940;-73
2022/09/25 15:59:23;;;;;;;;;;;;;;;15.33;81.46;100279.09;4950699;28;19965;-73
2022/09/25 16:05:51;;;;;;;;;;;;;;;16.52;75.31;100268.88;4958286;28;20342;-73
2022/09/25 16:09:15;;;;;;;;;;;;;;;16.37;73.98;100252.50;4950316;28;20384;-73
2022/09/25 16:12:41;;;;;;;;;;;;;;;16.17;72.81;100255.88;4958188;28;20374;-73
2022/09/25 16:15:48;;;;;;;;;;;;;;;16.26;74.65;100260.41;4952405;28;20017;-73
2022/09/25 16:18:54;;;;;;;;;;;;;;;16.39;74.38;100250.53;4949843;28;19922;-73
2022/09/25 16:22:02;;;;;;;;;;;;;;;16.21;75.13;100254.69;4951533;28;19970;-73
2022/09/25 16:25:20;;;;;;;;;;;;;;;15.99;75.86;100256.41;4969508;28;19937;-73
2022/09/25 16:28:30;;;;;;;;;;;;;;;15.88;75.90;100261.66;4968644;28;20417;-73
2022/09/25 16:31:36;;;;;;;;;;;;;;;15.30;78.68;100260.88;4955670;28;19969;-73
2022/09/25 16:34:54;;;;;;;;;;;;;;;15.16;80.38;100263.72;4949145;28;19921;-73
2022/09/25 16:38:00;;;;;;;;;;;;;;;15.07;80.82;100260.00;4951273;28;20089;-73
2022/09/25 16:41:06;;;;;;;;;;;;;;;14.84;81.77;100267.81;4951175;28;19944;-73
2022/09/25 16:44:24;;;;;;;;;;;;;;;14.49;83.27;100259.84;4949909;28;19969;-73
2022/09/25 16:47:29;;;;;;;;;;;;;;;14.49;82.75;100275.63;4970831;28;19921;-72